Time;durP1;ratioP1;P1;durP2;ratioP2;P2;SDS_P1;SDS_P2;PMS_P1;PMS_P2;Temp;Humidity;BMP_temperature;BMP_pressure;BME280_temperature;BME280_humidity;BME280_pressure;Samples;Min_cycle;Max_cycle;Signal;HPM_P1;HPM_P2
2021/03/29 00:01:19;;;;;;;5.37;2.30;;;;;;;20.67;44.94;102169.20;1782239;79;21070;-62
2021/03/29 00:03:45;;;;;;;2.50;1.85;;;;;;;20.68;44.95;102172.79;1735334;81;21125;-62
2021/03/29 00:06:12;;;;;;;4.25;2.35;;;;;;;20.65;44.94;102170.60;1740721;81;21539;-63
2021/03/29 00:08:38;;;;;;;2.58;2.12;;;;;;;20.64;44.96;102178.06;1735946;81;21183;-62
2021/03/29 00:11:05;;;;;;;4.65;2.17;;;;;;;20.63;44.95;102175.58;1734970;81;21568;-62
2021/03/29 00:13:31;;;;;;;3.42;2.00;;;;;;;20.62;44.95;102180.86;1717654;81;21180;-62
2021/03/29 00:15:58;;;;;;;3.83;2.22;;;;;;;20.61;44.95;102184.73;1709765;82;21194;-62
2021/03/29 00:18:25;;;;;;;3.40;2.20;;;;;;;20.60;44.96;102183.90;1737426;81;21117;-62
2021/03/29 00:20:55;;;;;;;3.67;2.37;;;;;;;20.59;44.95;102187.77;1724790;81;21137;-62
2021/03/29 00:23:22;;;;;;;4.05;2.27;;;;;;;20.57;44.94;102184.48;1734885;81;21116;-63
2021/03/29 00:25:49;;;;;;;3.47;2.25;;;;;;;20.56;44.97;102184.20;1735357;81;21097;-62
2021/03/29 00:28:15;;;;;;;5.65;2.05;;;;;;;20.56;44.95;102191.11;1742516;81;21571;-61
2021/03/29 00:30:46;;;;;;;4.62;2.08;;;;;;;20.55;44.95;102189.45;1738172;81;21186;-62
2021/03/29 00:33:12;;;;;;;4.45;2.58;;;;;;;20.54;44.95;102193.31;1742723;80;21249;-61
2021/03/29 00:35:40;;;;;;;4.10;2.67;;;;;;;20.52;44.93;102187.26;1738788;81;21201;-62
2021/03/29 00:38:08;;;;;;;3.65;2.60;;;;;;;20.51;44.93;102190.58;1738024;80;21177;-61
2021/03/29 00:40:38;;;;;;;4.60;2.30;;;;;;;20.49;44.94;102190.05;1761271;80;21106;-62
2021/03/29 00:43:17;;;;;;;4.42;3.08;;;;;;;20.49;44.96;102191.98;1775094;79;21141;-63
2021/03/29 00:45:46;;;;;;;3.92;2.47;;;;;;;20.50;44.96;102189.47;1765151;79;21105;-62
2021/03/29 00:48:17;;;;;;;3.95;2.37;;;;;;;20.51;44.97;102184.22;1769069;79;21631;-62
2021/03/29 00:50:52;;;;;;;;;;;;;;;20.54;44.95;102186.41;1767571;79;21188;-62
2021/03/29 00:53:18;;;;;;;2.90;2.15;;;;;;;20.55;44.92;102177.01;1780001;79;20270;-62
2021/03/29 00:55:46;;;;;;;3.65;2.52;;;;;;;20.57;44.89;102183.64;1727550;81;21145;-62
2021/03/29 00:58:16;;;;;;;3.95;2.50;;;;;;;20.59;44.85;102189.15;1732319;81;21200;-61
2021/03/29 01:01:10;;;;;;;3.37;2.30;;;;;;;20.62;44.81;102183.08;1734887;80;22424;-62
2021/03/29 01:03:41;;;;;;;5.12;2.62;;;;;;;20.64;44.78;102184.98;1741316;81;21140;-62
2021/03/29 01:06:12;;;;;;;4.03;2.22;;;;;;;20.67;44.76;102184.95;1747321;80;21106;-62
2021/03/29 01:08:48;;;;;;;4.42;2.50;;;;;;;20.69;44.71;102184.96;1741943;81;21025;-62
2021/03/29 01:11:18;;;;;;;3.90;2.45;;;;;;;20.72;44.67;102192.67;1754382;79;21589;-61
2021/03/29 01:13:47;;;;;;;4.12;2.50;;;;;;;20.75;44.66;102189.33;1778785;79;22163;-62
2021/03/29 01:16:15;;;;;;;4.03;2.42;;;;;;;20.76;44.62;102186.84;1771632;79;21189;-62
2021/03/29 01:18:44;;;;;;;3.58;2.70;;;;;;;20.78;44.61;102195.70;1770697;79;21117;-62
2021/03/29 01:21:49;;;;;;;3.30;2.50;;;;;;;20.80;44.57;102186.55;1765883;79;21184;-61
2021/03/29 01:24:27;;;;;;;4.72;2.75;;;;;;;20.82;44.56;102187.65;1763192;79;21137;-62
2021/03/29 01:26:54;;;;;;;4.67;2.58;;;;;;;20.82;44.54;102192.63;1759288;79;21328;-63
2021/03/29 01:29:21;;;;;;;3.40;2.47;;;;;;;20.84;44.52;102195.92;1769538;79;21153;-62
2021/03/29 01:31:48;;;;;;;4.80;2.62;;;;;;;20.84;44.52;102195.09;1770192;79;21133;-62
2021/03/29 01:34:15;;;;;;;3.95;2.75;;;;;;;20.86;44.52;102188.73;1773028;79;21223;-61
2021/03/29 01:36:44;;;;;;;4.67;2.73;;;;;;;20.87;44.51;102184.86;1764738;79;21161;-61
2021/03/29 01:39:13;;;;;;;5.25;2.72;;;;;;;20.89;44.48;102177.08;1773349;79;21378;-61
2021/03/29 01:41:41;;;;;;;4.22;2.90;;;;;;;20.89;44.48;102172.38;1738824;81;21220;-62
2021/03/29 01:44:09;;;;;;;5.40;2.92;;;;;;;20.91;44.47;102180.41;1771729;79;21738;-62
2021/03/29 01:46:36;;;;;;;4.85;2.70;;;;;;;20.91;44.46;102181.23;1767728;80;21176;-62
2021/03/29 01:49:03;;;;;;;3.90;2.65;;;;;;;20.92;44.45;102180.09;1770118;79;21136;-62
2021/03/29 01:51:29;;;;;;;4.12;2.70;;;;;;;20.93;44.44;102183.14;1768777;79;22109;-61
2021/03/29 01:53:56;;;;;;;4.40;3.08;;;;;;;20.95;44.44;102180.94;1768279;79;21112;-62
2021/03/29 01:56:24;;;;;;;3.50;2.37;;;;;;;20.97;44.40;102177.86;1757599;79;21616;-63
2021/03/29 01:58:51;;;;;;;5.08;2.92;;;;;;;20.99;44.38;102174.27;1764814;79;21172;-62
2021/03/29 02:01:17;;;;;;;5.58;2.90;;;;;;;21.01;44.35;102167.87;1771238;79;21085;-63
2021/03/29 02:03:45;;;;;;;4.58;2.80;;;;;;;21.03;44.34;102173.95;1734321;81;21224;-62
2021/03/29 02:06:11;;;;;;;4.70;3.22;;;;;;;21.05;44.29;102174.48;1738708;81;21177;-62
2021/03/29 02:08:39;;;;;;;5.17;3.00;;;;;;;21.08;44.27;102172.54;1705783;82;21079;-62
2021/03/29 02:11:06;;;;;;;3.37;2.60;;;;;;;21.09;44.24;102174.75;1741475;81;21188;-62
2021/03/29 02:13:38;;;;;;;5.08;3.00;;;;;;;21.10;44.21;102173.62;1738712;81;21165;-63
2021/03/29 02:16:08;;;;;;;4.67;2.98;;;;;;;21.11;44.21;102169.19;1747767;80;21144;-62
2021/03/29 02:18:41;;;;;;;4.62;3.20;;;;;;;21.12;44.20;102172.78;1742162;80;21366;-64
2021/03/29 02:21:19;;;;;;;5.30;3.05;;;;;;;21.13;44.19;102179.42;1741585;81;21060;-62
2021/03/29 02:23:55;;;;;;;4.30;2.72;;;;;;;21.14;44.16;102178.32;1738672;80;21277;-61
2021/03/29 02:26:21;;;;;;;4.25;2.52;;;;;;;21.16;44.14;102183.58;1738207;80;21145;-62
2021/03/29 02:28:49;;;;;;;5.10;3.20;;;;;;;21.16;44.11;102183.03;1742166;81;21326;-62
2021/03/29 02:31:16;;;;;;;4.80;2.55;;;;;;;21.18;44.08;102183.55;1748663;81;21145;-62
2021/03/29 02:33:44;;;;;;;5.08;3.42;;;;;;;21.19;44.06;102181.61;1742879;81;21097;-63
2021/03/29 02:36:11;;;;;;;4.42;2.95;;;;;;;21.21;44.03;102178.02;1708061;82;21216;-62
2021/03/29 02:38:37;;;;;;;5.30;3.17;;;;;;;21.21;44.02;102180.22;1693836;81;21061;-62
2021/03/29 02:41:04;;;;;;;5.55;3.40;;;;;;;21.22;44.00;102175.48;1737154;80;21272;-62
2021/03/29 02:43:31;;;;;;;4.80;3.10;;;;;;;21.22;44.00;102174.11;1741224;81;21196;-62
2021/03/29 02:46:02;;;;;;;4.55;3.20;;;;;;;21.22;43.98;102177.70;1749075;80;21211;-62
2021/03/29 02:48:38;;;;;;;5.78;3.77;;;;;;;21.23;43.95;102181.30;1748096;81;21065;-62
2021/03/29 02:51:10;;;;;;;6.22;3.37;;;;;;;21.23;43.96;102177.98;1748006;81;21192;-61
2021/03/29 02:53:36;;;;;;;5.25;3.40;;;;;;;21.23;43.95;102176.59;1742103;81;21261;-61
2021/03/29 02:56:12;;;;;;;6.70;3.37;;;;;;;21.22;43.95;102177.70;1738091;81;21224;-61
2021/03/29 02:58:41;;;;;;;5.97;3.60;;;;;;;21.23;43.96;102181.30;1720202;82;21231;-61
2021/03/29 03:01:13;;;;;;;5.70;3.80;;;;;;;21.22;43.92;102181.02;1738329;80;21643;-61
2021/03/29 03:03:41;;;;;;;4.78;3.35;;;;;;;21.20;43.96;102186.87;1748223;80;21179;-62
2021/03/29 03:06:08;;;;;;;4.80;3.83;;;;;;;21.20;43.95;102177.73;1749476;80;21289;-61
2021/03/29 03:08:37;;;;;;;4.47;3.67;;;;;;;21.19;43.93;102180.22;1739282;81;21421;-63
2021/03/29 03:11:08;;;;;;;4.58;3.52;;;;;;;21.17;43.93;102183.30;1743595;81;21184;-61
2021/03/29 03:13:36;;;;;;;6.92;4.33;;;;;;;21.15;43.97;102179.98;1734749;80;21168;-60
2021/03/29 03:16:05;;;;;;;5.60;3.70;;;;;;;21.14;43.95;102181.64;1739176;81;21173;-61
2021/03/29 03:18:31;;;;;;;5.03;3.80;;;;;;;21.14;43.96;102180.26;1745277;80;22266;-61
2021/03/29 03:20:58;;;;;;;4.80;3.47;;;;;;;21.12;43.95;102181.95;1737558;81;20973;-61
2021/03/29 03:23:24;;;;;;;5.85;3.75;;;;;;;21.10;43.96;102181.92;1731945;81;21172;-63
2021/03/29 03:25:52;;;;;;;6.45;4.65;;;;;;;21.09;43.96;102180.29;1734456;81;21130;-62
2021/03/29 03:28:22;;;;;;;5.80;4.15;;;;;;;21.07;43.97;102181.95;1732253;81;21274;-61
2021/03/29 03:30:52;;;;;;;6.45;4.42;;;;;;;21.05;43.97;102181.98;1756237;80;21241;-62
2021/03/29 03:33:24;;;;;;;6.17;4.37;;;;;;;21.04;43.97;102179.77;1740031;81;21885;-61
2021/03/29 03:35:52;;;;;;;5.30;3.87;;;;;;;21.02;43.99;102179.77;1735793;81;21532;-61
2021/03/29 03:38:31;;;;;;;6.87;4.40;;;;;;;20.99;44.00;102182.56;1741751;81;21171;-61
2021/03/29 03:41:09;;;;;;;5.58;4.03;;;;;;;20.97;43.98;102186.98;1710428;82;21129;-61
2021/03/29 03:43:40;;;;;;;6.87;4.20;;;;;;;20.95;43.99;102188.40;1735455;80;21221;-62
2021/03/29 03:46:34;;;;;;;6.95;4.87;;;;;;;20.94;43.99;102197.25;1749826;81;26882;-64
2021/03/29 03:49:05;;;;;;;7.25;4.12;;;;;;;20.92;43.99;102207.77;1718218;82;21031;-61
2021/03/29 03:51:31;;;;;;;;;;;;;;;20.90;43.98;102205.86;1771055;79;21161;-62
2021/03/29 03:53:58;;;;;;;5.58;4.30;;;;;;;20.88;44.01;102197.00;1765203;79;20339;-61
2021/03/29 03:56:24;;;;;;;6.62;4.53;;;;;;;20.84;44.00;102197.30;1738323;81;21188;-61
2021/03/29 03:58:51;;;;;;;6.70;4.17;;;;;;;20.83;44.02;102199.00;1742943;80;21161;-62
2021/03/29 04:01:18;;;;;;;4.97;4.08;;;;;;;20.81;44.04;102197.89;1729735;81;21158;-62
2021/03/29 04:03:44;;;;;;;7.10;4.50;;;;;;;20.79;44.02;102195.95;1730738;81;21154;-62
2021/03/29 04:06:11;;;;;;;6.10;4.85;;;;;;;20.78;44.03;102189.34;1730027;81;21659;-60
2021/03/29 04:08:37;;;;;;;5.72;4.15;;;;;;;20.76;44.03;102188.23;1734393;81;21198;-61
2021/03/29 04:11:26;;;;;;;6.55;4.65;;;;;;;20.77;44.08;102192.66;1745656;81;21038;-61
2021/03/29 04:13:51;;;;;;;8.18;4.47;;;;;;;20.79;44.07;102192.38;1692080;83;21516;-62
2021/03/29 04:16:18;;;;;;;5.30;4.22;;;;;;;20.81;44.05;102194.29;1714917;81;22266;-60
2021/03/29 04:18:44;;;;;;;5.70;3.72;;;;;;;20.83;44.00;102193.47;1723022;81;21148;-61
2021/03/29 04:21:11;;;;;;;6.87;4.60;;;;;;;20.85;43.96;102197.58;1714632;81;22241;-61
2021/03/29 04:23:37;;;;;;;5.75;4.12;;;;;;;20.87;43.93;102196.76;1723050;81;21504;-62
2021/03/29 04:26:04;;;;;;;6.58;4.25;;;;;;;20.90;43.92;102205.86;1727650;82;21246;-61
2021/03/29 04:28:30;;;;;;;5.47;3.92;;;;;;;20.92;43.87;102200.02;1725486;82;21179;-61
2021/03/29 04:30:57;;;;;;;6.95;3.80;;;;;;;20.95;43.90;102197.53;1718275;82;21215;-62
2021/03/29 04:33:24;;;;;;;6.35;4.03;;;;;;;20.99;43.84;102193.63;1715657;82;21213;-65
2021/03/29 04:35:51;;;;;;;9.98;5.30;;;;;;;21.02;43.89;102191.66;1712855;82;21199;-61
2021/03/29 04:38:18;;;;;;;5.28;3.52;;;;;;;21.05;43.98;102185.55;1724790;82;21240;-64
2021/03/29 04:40:44;;;;;;;6.95;4.00;;;;;;;21.08;44.08;102184.16;1715711;82;21172;-65
2021/03/29 04:43:11;;;;;;;10.23;5.53;;;;;;;21.12;44.13;102190.77;1717499;82;21092;-62
2021/03/29 04:45:37;;;;;;;8.23;4.55;;;;;;;21.14;44.20;102186.63;1719228;82;21793;-63
2021/03/29 04:48:09;;;;;;;13.15;6.87;;;;;;;21.18;44.23;102198.77;1725504;81;21213;-62
2021/03/29 04:50:36;;;;;;;9.73;5.47;;;;;;;21.21;44.31;102196.83;1718545;82;21568;-63
2021/03/29 04:53:02;;;;;;;25.88;11.43;;;;;;;21.24;44.35;102199.02;1708666;81;21559;-62
2021/03/29 04:55:29;;;;;;;12.07;5.90;;;;;;;21.27;44.46;102197.59;1701452;81;21200;-65
2021/03/29 04:57:55;;;;;;;4.87;3.35;;;;;;;21.29;44.47;102204.52;1714161;81;21216;-63
2021/03/29 05:00:23;;;;;;;8.85;4.45;;;;;;;21.33;44.50;102204.76;1709560;81;22029;-64
2021/03/29 05:02:49;;;;;;;10.65;5.12;;;;;;;21.36;44.51;102206.94;1727275;81;21239;-62
2021/03/29 05:05:16;;;;;;;11.28;5.58;;;;;;;21.37;44.57;102203.90;1721242;82;21090;-65
2021/03/29 05:07:44;;;;;;;9.63;5.08;;;;;;;21.42;44.61;102211.34;1717281;81;21149;-61
2021/03/29 05:10:12;;;;;;;8.48;4.20;;;;;;;21.44;44.62;102210.47;1717701;81;21632;-63
2021/03/29 05:12:39;;;;;;;7.85;3.52;;;;;;;21.48;44.64;102213.48;1716595;81;21196;-61
2021/03/29 05:15:07;;;;;;;5.90;3.10;;;;;;;21.48;44.65;102215.70;1750615;81;21581;-60
2021/03/29 05:17:34;;;;;;;8.80;3.72;;;;;;;21.50;44.68;102214.03;1767845;79;21602;-61
2021/03/29 05:20:02;;;;;;;6.55;3.33;;;;;;;21.52;44.71;102216.77;1748021;81;21126;-62
2021/03/29 05:22:28;;;;;;;9.65;3.80;;;;;;;21.53;44.73;102217.60;1765607;80;21204;-59
2021/03/29 05:24:54;;;;;;;11.10;3.92;;;;;;;21.54;44.73;102218.70;1770635;80;21280;-59
2021/03/29 05:27:21;;;;;;;8.63;3.72;;;;;;;21.53;44.76;102217.60;1755322;80;21213;-59
2021/03/29 05:29:47;;;;;;;9.43;4.47;;;;;;;21.50;44.80;102214.03;1770774;80;21042;-58
2021/03/29 05:32:23;;;;;;;8.13;3.47;;;;;;;21.47;44.83;102214.62;1767259;80;21565;-58
2021/03/29 05:34:55;;;;;;;10.03;4.08;;;;;;;21.45;44.85;102215.45;1767440;80;21197;-57
2021/03/29 05:37:22;;;;;;;9.40;3.60;;;;;;;21.40;44.88;102217.70;1768209;80;21201;-58
2021/03/29 05:39:49;;;;;;;5.00;3.10;;;;;;;21.36;44.87;102213.31;1757217;80;21592;-58
2021/03/29 05:42:17;;;;;;;6.33;2.80;;;;;;;21.34;44.89;102211.96;1761145;81;21137;-58
2021/03/29 05:44:43;;;;;;;10.90;3.75;;;;;;;21.31;44.89;102213.34;1771023;79;21403;-59
2021/03/29 05:47:10;;;;;;;10.38;3.42;;;;;;;21.27;44.90;102215.03;1761949;80;21289;-57
2021/03/29 05:49:36;;;;;;;6.50;3.20;;;;;;;21.25;44.91;102220.05;1755903;81;21185;-59
2021/03/29 05:52:04;;;;;;;6.15;3.10;;;;;;;21.23;44.91;102216.73;1752687;80;21153;-58
2021/03/29 05:54:31;;;;;;;5.35;3.50;;;;;;;21.21;44.87;102212.61;1761952;80;21173;-59
2021/03/29 05:56:57;;;;;;;5.85;3.10;;;;;;;21.18;44.88;102225.06;1750294;81;21584;-59
2021/03/29 05:59:33;;;;;;;7.42;3.45;;;;;;;21.16;44.87;102212.09;1746933;81;21188;-59
2021/03/29 06:01:56;;;;;;;6.85;3.10;;;;;;;21.13;44.86;102215.41;1743381;81;22126;-59
2021/03/29 06:04:47;;;;;;;12.00;4.08;;;;;;;21.12;44.84;102213.77;1744503;81;21180;-59
2021/03/29 06:07:17;;;;;;;6.20;3.58;;;;;;;21.09;44.83;102218.45;1741329;82;21165;-59
2021/03/29 06:09:45;;;;;;;8.48;3.72;;;;;;;21.06;44.81;102219.58;1754140;81;21213;-59
2021/03/29 06:12:14;;;;;;;6.35;2.90;;;;;;;21.03;44.82;102222.93;1755292;81;21701;-59
2021/03/29 06:14:50;;;;;;;5.22;2.65;;;;;;;21.00;44.82;102226.28;1744412;81;21145;-59
2021/03/29 06:17:22;;;;;;;7.47;3.00;;;;;;;20.96;44.81;102222.68;1748591;80;21171;-59
2021/03/29 06:19:58;;;;;;;5.65;2.70;;;;;;;20.94;44.81;102225.47;1735842;81;21783;-59
2021/03/29 06:22:30;;;;;;;6.08;2.92;;;;;;;20.91;44.78;102228.82;1752132;80;21637;-59
2021/03/29 06:25:10;;;;;;;5.20;2.95;;;;;;;20.86;44.78;102228.30;1741998;81;21236;-59
2021/03/29 06:27:57;;;;;;;5.72;3.15;;;;;;;20.82;44.78;102227.20;1746974;81;21169;-59
2021/03/29 06:30:35;;;;;;;4.80;2.90;;;;;;;20.79;44.76;102228.34;1743796;81;21161;-58
2021/03/29 06:33:15;;;;;;;7.42;3.12;;;;;;;20.76;44.75;102231.09;1758727;81;21173;-59
2021/03/29 06:35:53;;;;;;;5.28;3.00;;;;;;;20.71;44.75;102226.97;1717422;81;21470;-59
2021/03/29 06:38:33;;;;;;;4.87;3.00;;;;;;;20.68;44.77;102235.84;1750654;81;21321;-59
2021/03/29 06:41:01;;;;;;;7.20;3.08;;;;;;;20.63;44.78;102231.72;1731284;82;21185;-58
2021/03/29 06:43:37;;;;;;;6.20;2.65;;;;;;;20.60;44.76;102217.63;1746847;81;21137;-59
2021/03/29 06:46:22;;;;;;;3.83;2.42;;;;;;;20.56;44.79;102224.84;1739178;81;21201;-59
2021/03/29 06:48:49;;;;;;;4.78;2.58;;;;;;;20.52;44.81;102221.82;1737775;81;21188;-59
2021/03/29 06:51:30;;;;;;;4.83;2.45;;;;;;;20.49;44.81;102223.78;1734187;81;22094;-59
2021/03/29 06:54:06;;;;;;;6.62;2.87;;;;;;;20.44;44.82;102217.71;1744690;81;21168;-59
2021/03/29 06:56:42;;;;;;;5.12;2.65;;;;;;;20.43;44.83;102220.75;1745355;81;21178;-59
2021/03/29 06:59:21;;;;;;;4.15;2.30;;;;;;;20.39;44.86;102214.13;1740197;81;21160;-59
2021/03/29 07:01:51;;;;;;;5.10;2.90;;;;;;;20.35;44.86;102218.02;1761296;80;21224;-58
2021/03/29 07:04:22;;;;;;;5.33;2.92;;;;;;;20.32;44.87;102218.59;1750981;79;21598;-59
2021/03/29 07:06:49;;;;;;;3.67;2.47;;;;;;;20.29;44.88;102212.73;1752293;81;21268;-59
2021/03/29 07:09:17;;;;;;;5.00;2.67;;;;;;;20.26;44.90;102218.84;1735006;81;21168;-58
2021/03/29 07:11:46;;;;;;;5.22;2.80;;;;;;;20.24;44.95;102214.16;1734947;81;21165;-58
2021/03/29 07:14:13;;;;;;;4.75;2.62;;;;;;;20.22;44.95;102210.29;1758683;80;21133;-59
2021/03/29 07:16:41;;;;;;;4.30;2.77;;;;;;;20.20;44.96;102222.74;1727533;80;21270;-59
2021/03/29 07:19:08;;;;;;;3.30;2.35;;;;;;;20.18;44.98;102228.55;1774305;80;21169;-58
2021/03/29 07:21:35;;;;;;;7.30;2.80;;;;;;;20.15;44.98;102218.61;1752997;80;21587;-59
2021/03/29 07:24:11;;;;;;;3.52;2.35;;;;;;;20.13;44.99;102212.52;1744031;82;21267;-59
2021/03/29 07:26:43;;;;;;;5.97;2.35;;;;;;;20.12;45.01;102220.53;1743876;80;21170;-59
2021/03/29 07:29:26;;;;;;;3.90;2.50;;;;;;;20.08;45.04;102211.98;1738566;80;21263;-59
2021/03/29 07:32:02;;;;;;;5.33;2.55;;;;;;;20.05;45.05;102213.92;1751994;80;21595;-58
2021/03/29 07:34:43;;;;;;;5.55;2.20;;;;;;;20.03;45.06;102216.13;1743840;82;21152;-59
2021/03/29 07:37:44;;;;;;;4.35;2.58;;;;;;;19.99;45.07;102217.25;1719463;83;21201;-59
2021/03/29 07:40:22;;;;;;;4.28;2.47;;;;;;;19.96;45.07;102212.84;1745127;81;21175;-59
2021/03/29 07:42:51;;;;;;;5.03;2.55;;;;;;;19.94;45.09;102215.06;1750225;80;21192;-58
2021/03/29 07:45:25;;;;;;;3.67;2.62;;;;;;;19.91;45.13;102215.61;1730399;81;21099;-60
2021/03/29 07:47:57;;;;;;;3.10;2.45;;;;;;;19.89;45.16;102215.91;1718325;81;21172;-58
2021/03/29 07:50:35;;;;;;;3.65;2.40;;;;;;;19.87;45.17;102212.58;1748413;81;21180;-59
2021/03/29 07:53:08;;;;;;;5.37;2.50;;;;;;;19.85;45.19;102207.90;1746826;80;21131;-58
2021/03/29 07:55:39;;;;;;;4.50;2.50;;;;;;;19.84;45.19;102208.17;1743287;81;21198;-58
2021/03/29 07:58:13;;;;;;;5.23;2.80;;;;;;;19.82;45.20;102215.34;1723276;81;21184;-58
2021/03/29 08:00:46;;;;;;;4.05;2.75;;;;;;;19.80;45.19;102207.91;1750673;80;21443;-58
2021/03/29 08:03:18;;;;;;;4.10;2.05;;;;;;;19.79;45.17;102204.03;1749065;80;21156;-58
2021/03/29 08:05:47;;;;;;;3.52;2.30;;;;;;;19.76;45.18;102208.19;1721197;81;21191;-59
2021/03/29 08:08:34;;;;;;;3.60;2.37;;;;;;;19.73;45.18;102208.72;1764312;80;21057;-58
2021/03/29 08:11:09;;;;;;;3.40;2.12;;;;;;;19.73;45.19;102201.02;1742510;80;21154;-58
2021/03/29 08:13:54;;;;;;;3.98;2.37;;;;;;;19.70;45.18;102203.77;1724882;81;21158;-58
2021/03/29 08:19:18;;;;;;;3.17;2.27;;;;;;;19.71;45.20;102199.07;1866302;75;22264;-58
2021/03/29 08:22:09;;;;;;;4.05;2.02;;;;;;;19.64;45.22;102193.84;1830323;75;21020;-58
2021/03/29 08:24:50;;;;;;;2.47;2.15;;;;;;;19.63;45.24;102203.78;1782768;79;21489;-58
2021/03/29 08:27:22;;;;;;;4.12;2.47;;;;;;;19.60;45.27;102188.61;1782492;80;21145;-58
2021/03/29 08:29:52;;;;;;;3.12;2.02;;;;;;;19.58;45.28;102197.70;1793281;79;20999;-58
2021/03/29 08:32:31;;;;;;;4.78;2.50;;;;;;;19.56;45.30;102188.31;1805289;79;21040;-59
2021/03/29 08:35:21;;;;;;;3.85;2.42;;;;;;;19.55;45.35;102181.16;1779114;80;21044;-58
2021/03/29 08:37:50;;;;;;;3.27;2.05;;;;;;;19.54;45.36;102189.70;1797026;78;21198;-58
2021/03/29 08:40:29;;;;;;;4.47;2.05;;;;;;;19.51;45.40;102185.58;1781191;80;21506;-58
2021/03/29 08:42:59;;;;;;;4.67;2.52;;;;;;;19.50;45.40;102183.91;1815130;78;21184;-58
2021/03/29 08:45:27;;;;;;;3.25;2.58;;;;;;;19.49;45.43;102180.87;1804900;77;21616;-58
2021/03/29 08:47:55;;;;;;;5.15;2.65;;;;;;;19.49;45.46;102182.25;1803109;78;21140;-58
2021/03/29 08:50:32;;;;;;;4.42;2.35;;;;;;;19.48;45.47;102178.38;1784499;78;21574;-58
2021/03/29 08:53:01;;;;;;;3.90;2.58;;;;;;;19.46;45.48;102170.39;1781381;79;21129;-58
2021/03/29 08:55:32;;;;;;;3.70;2.42;;;;;;;19.45;45.49;102165.14;1764133;80;21622;-61
2021/03/29 08:57:58;;;;;;;5.10;2.50;;;;;;;19.45;45.51;102175.63;1768812;78;21226;-58
2021/03/29 09:00:28;;;;;;;3.55;2.45;;;;;;;19.44;45.53;102168.99;1770078;80;21132;-58
2021/03/29 09:02:55;;;;;;;5.35;2.45;;;;;;;19.43;45.57;102164.05;1805091;78;21215;-58
2021/03/29 09:05:25;;;;;;;3.60;2.40;;;;;;;19.42;45.57;102162.91;1804852;78;21449;-58
2021/03/29 09:07:53;;;;;;;4.45;2.52;;;;;;;19.40;45.61;102165.94;1853020;77;21012;-58
2021/03/29 09:10:27;;;;;;;4.30;2.45;;;;;;;19.40;45.65;102163.72;1801979;77;21163;-58
2021/03/29 09:13:00;;;;;;;3.85;2.47;;;;;;;19.39;45.69;102162.09;1763568;78;21178;-58
2021/03/29 09:15:30;;;;;;;3.60;2.58;;;;;;;19.40;45.69;102172.00;1793315;79;22412;-58
2021/03/29 09:18:12;;;;;;;4.05;2.30;;;;;;;19.38;45.70;102161.81;1796467;78;21476;-57
2021/03/29 09:20:46;;;;;;;3.95;2.08;;;;;;;19.37;45.74;102155.45;1822247;78;21007;-58
2021/03/29 09:23:13;;;;;;;5.80;2.95;;;;;;;19.38;45.78;102159.05;1786445;78;21151;-59
2021/03/29 09:25:43;;;;;;;3.35;2.00;;;;;;;19.35;45.82;102153.52;1812082;77;21206;-60
2021/03/29 09:31:00;;;;;;;3.30;2.10;;;;;;;19.40;46.10;102152.68;1776236;78;21181;-59
2021/03/29 09:33:27;;;;;;;3.02;2.00;;;;;;;19.41;46.23;102137.23;1788694;78;22226;-60
2021/03/29 09:35:53;;;;;;;3.47;1.75;;;;;;;19.44;46.37;102153.27;1768008;79;21182;-60
2021/03/29 09:38:40;;;;;;;4.87;1.90;;;;;;;19.47;46.50;102136.17;1785591;78;21191;-59
2021/03/29 09:41:20;;;;;;;2.98;1.90;;;;;;;19.49;46.61;102141.39;1801350;77;21189;-59
2021/03/29 09:43:48;;;;;;;3.10;1.83;;;;;;;19.51;46.72;102131.75;1803969;77;21245;-59
2021/03/29 09:46:16;;;;;;;2.42;1.62;;;;;;;19.55;46.79;102134.77;1811097;77;21491;-59
2021/03/29 09:48:43;;;;;;;3.83;1.77;;;;;;;19.56;46.90;102131.72;1812056;77;21159;-59
2021/03/29 09:51:23;;;;;;;2.45;1.60;;;;;;;19.60;46.95;102140.30;1784207;78;21205;-59
2021/03/29 09:53:49;;;;;;;4.60;2.15;;;;;;;19.63;47.00;102128.68;1780643;78;21716;-59
2021/03/29 09:56:31;;;;;;;2.65;1.80;;;;;;;19.65;47.06;102115.41;1770225;79;21680;-59
2021/03/29 09:58:57;;;;;;;2.35;1.55;;;;;;;19.68;47.08;102123.16;1796292;77;21146;-59
2021/03/29 10:01:26;;;;;;;2.67;1.60;;;;;;;19.72;47.14;102124.80;1786512;78;21221;-59
2021/03/29 10:04:00;;;;;;;2.67;1.52;;;;;;;19.74;47.14;102117.05;1805924;77;21217;-60
2021/03/29 10:06:29;;;;;;;2.80;1.72;;;;;;;19.78;47.18;102118.14;1809575;77;22188;-60
2021/03/29 10:09:02;;;;;;;2.98;1.72;;;;;;;19.81;47.19;102118.43;1809959;77;21170;-59
2021/03/29 10:11:46;;;;;;;3.87;1.57;;;;;;;19.87;47.22;102119.22;1781347;78;21174;-60
2021/03/29 10:14:16;;;;;;;2.90;1.45;;;;;;;19.93;47.24;102108.45;1784539;78;21598;-59
2021/03/29 10:16:48;;;;;;;2.67;1.50;;;;;;;20.00;47.21;102111.72;1779553;78;21155;-59
2021/03/29 10:19:19;;;;;;;2.87;1.57;;;;;;;20.10;47.19;102119.98;1787838;78;21600;-58
2021/03/29 10:22:05;;;;;;;;;;;;;;;20.18;47.13;102123.53;1814217;77;21221;-59
2021/03/29 10:24:33;;;;;;;2.58;1.50;;;;;;;20.24;47.10;102116.86;1782081;77;20491;-60
2021/03/29 10:27:06;;;;;;;2.55;1.50;;;;;;;20.30;47.03;102108.03;1825155;77;21056;-59
2021/03/29 10:29:38;;;;;;;2.33;1.50;;;;;;;20.36;46.98;102111.87;1816433;77;22483;-59
2021/03/29 10:32:17;;;;;;;2.15;1.20;;;;;;;20.43;46.96;102116.53;1793011;78;22154;-59
2021/03/29 10:34:44;;;;;;;2.40;1.60;;;;;;;20.50;46.92;102111.50;1817131;77;21177;-60
2021/03/29 10:37:25;;;;;;;2.80;1.52;;;;;;;20.58;46.88;102104.53;1823327;77;21166;-59
2021/03/29 10:39:52;;;;;;;1.52;1.17;;;;;;;20.65;46.84;102103.69;1816430;77;21182;-59
2021/03/29 10:42:20;;;;;;;2.83;1.17;;;;;;;20.72;46.77;102101.97;1814733;77;21173;-60
2021/03/29 10:44:47;;;;;;;2.50;1.50;;;;;;;20.77;46.73;102095.02;1795480;78;21736;-59
2021/03/29 10:47:14;;;;;;;3.20;1.52;;;;;;;20.81;46.69;102092.78;1802776;78;21805;-60
2021/03/29 10:49:41;;;;;;;1.90;1.22;;;;;;;20.87;46.69;102090.25;1797283;78;21419;-61
2021/03/29 10:52:08;;;;;;;2.50;1.50;;;;;;;20.92;46.63;102097.66;1815647;77;21518;-60
2021/03/29 10:54:35;;;;;;;3.12;1.45;;;;;;;20.96;46.58;102091.84;1795791;78;21205;-60
2021/03/29 10:57:03;;;;;;;3.15;1.50;;;;;;;21.01;46.56;102087.63;1819366;77;22260;-61
2021/03/29 10:59:29;;;;;;;2.65;1.30;;;;;;;21.05;46.50;102076.83;1808448;78;21042;-60
2021/03/29 11:01:56;;;;;;;2.00;1.22;;;;;;;21.08;46.45;102078.45;1822336;77;21573;-59
2021/03/29 11:04:22;;;;;;;2.60;1.50;;;;;;;21.13;46.44;102079.00;1817536;77;21210;-59
2021/03/29 11:06:49;;;;;;;1.72;1.30;;;;;;;21.16;46.39;102075.64;1803598;78;21217;-60
2021/03/29 11:09:15;;;;;;;1.82;1.10;;;;;;;21.19;46.33;102069.52;1820929;77;22028;-59
2021/03/29 11:11:42;;;;;;;1.67;1.15;;;;;;;21.22;46.28;102075.30;1815566;77;21411;-60
2021/03/29 11:14:08;;;;;;;2.27;1.30;;;;;;;21.26;46.25;102068.05;1812005;78;21183;-60
2021/03/29 11:16:35;;;;;;;1.80;1.17;;;;;;;21.31;46.17;102066.63;1807795;78;21063;-60
2021/03/29 11:19:01;;;;;;;1.65;1.17;;;;;;;21.35;46.10;102076.00;1809789;78;21163;-60
2021/03/29 11:21:29;;;;;;;2.30;1.42;;;;;;;21.39;46.07;102061.00;1805779;78;21633;-59
2021/03/29 11:23:56;;;;;;;2.37;1.12;;;;;;;21.45;46.03;102060.41;1792295;78;21230;-59
2021/03/29 11:26:23;;;;;;;2.80;1.30;;;;;;;21.48;45.98;102052.89;1784586;78;21253;-59
2021/03/29 11:28:50;;;;;;;1.60;1.05;;;;;;;21.51;45.94;102055.09;1814333;77;22225;-58
2021/03/29 11:31:17;;;;;;;3.42;1.20;;;;;;;21.55;45.92;102050.61;1795433;78;21610;-59
2021/03/29 11:33:44;;;;;;;1.55;1.07;;;;;;;21.59;45.89;102050.28;1817917;77;21157;-59
2021/03/29 11:36:11;;;;;;;1.77;1.10;;;;;;;21.62;45.85;102051.08;1811891;77;21217;-59
2021/03/29 11:38:39;;;;;;;1.52;1.10;;;;;;;21.64;45.83;102054.39;1815931;77;21210;-58
2021/03/29 11:41:05;;;;;;;1.85;1.12;;;;;;;21.66;45.81;102052.13;1793760;78;21103;-59
2021/03/29 11:43:32;;;;;;;1.90;1.07;;;;;;;21.67;45.79;102048.25;1819209;77;21191;-59
2021/03/29 11:45:58;;;;;;;1.95;0.93;;;;;;;21.68;45.77;102044.37;1794622;78;21201;-58
2021/03/29 11:48:25;;;;;;;1.72;1.10;;;;;;;21.70;45.76;102049.03;1789772;78;21249;-59